Time;durP1;ratioP1;P1;durP2;ratioP2;P2;SDS_P1;SDS_P2;PMS_P1;PMS_P2;Temp;Humidity;BMP_temperature;BMP_pressure;BME280_temperature;BME280_humidity;BME280_pressure;Samples;Min_cycle;Max_cycle;Signal;HPM_P1;HPM_P2
2023/10/28 00:01:32;;;;;;;0.70;0.70;;;;;8.60;94437.00;;;;5058963;28;20599;-60
2023/10/28 00:04:02;;;;;;;0.50;0.50;;;;;8.70;94433.00;;;;5058634;28;20219;-61
2023/10/28 00:06:29;;;;;;;0.60;0.60;;;;;8.60;94437.00;;;;5058777;28;20203;-61
2023/10/28 00:08:57;;;;;;;0.60;0.60;;;;;8.60;94445.00;;;;5059022;28;20245;-60
2023/10/28 00:11:24;;;;;;;0.50;0.50;;;;;8.70;94437.00;;;;5059349;28;20215;-60
2023/10/28 00:13:53;;;;;;;0.60;0.60;;;;;8.60;94445.00;;;;5041952;28;20188;-60
2023/10/28 00:16:21;;;;;;;0.60;0.60;;;;;8.60;94441.00;;;;5041465;28;20222;-61
2023/10/28 00:18:48;;;;;;;0.60;0.60;;;;;8.80;94447.00;;;;5058649;28;20255;-60
2023/10/28 00:21:18;;;;;;;0.60;0.60;;;;;8.60;94451.00;;;;5059079;28;20218;-60
2023/10/28 00:23:46;;;;;;;1.03;0.93;;;;;8.50;94446.00;;;;5059282;28;20216;-61
2023/10/28 00:26:13;;;;;;;0.63;0.63;;;;;8.50;94442.00;;;;5059753;28;20202;-61
2023/10/28 00:28:41;;;;;;;0.90;0.90;;;;;8.40;94449.00;;;;5059492;28;20200;-61
2023/10/28 00:31:17;;;;;;;1.50;0.83;;;;;8.40;94444.00;;;;5058472;28;20200;-60
2023/10/28 00:33:44;;;;;;;0.60;0.60;;;;;8.30;94450.00;;;;5059345;28;20258;-61
2023/10/28 00:36:12;;;;;;;0.50;0.50;;;;;8.50;94453.00;;;;5059943;28;20215;-61
2023/10/28 00:38:39;;;;;;;0.50;0.50;;;;;8.40;94459.00;;;;5041850;28;20212;-61
2023/10/28 00:41:07;;;;;;;0.60;0.60;;;;;8.40;94460.00;;;;5059004;28;20192;-61
2023/10/28 00:43:34;;;;;;;0.60;0.60;;;;;8.50;94467.00;;;;5058786;28;20273;-61
2023/10/28 00:46:03;;;;;;;0.70;0.70;;;;;8.60;94474.00;;;;5058618;28;20200;-61
2023/10/28 00:48:32;;;;;;;0.50;0.50;;;;;8.50;94463.00;;;;5059421;28;20193;-61
2023/10/28 00:51:00;;;;;;;0.73;0.73;;;;;8.50;94462.00;;;;5058512;28;20208;-61
2023/10/28 00:53:27;;;;;;;0.50;0.50;;;;;8.60;94468.00;;;;5059004;28;20187;-61
2023/10/28 00:55:55;;;;;;;0.60;0.60;;;;;8.30;94473.00;;;;5040815;28;20648;-60
2023/10/28 00:58:24;;;;;;;0.50;0.50;;;;;8.30;94484.00;;;;5059089;28;20565;-61
2023/10/28 01:00:51;;;;;;;0.60;0.60;;;;;8.30;94469.00;;;;5058879;28;20200;-61
2023/10/28 01:03:19;;;;;;;0.60;0.60;;;;;8.30;94478.00;;;;5056746;28;20216;-60
2023/10/28 01:05:48;;;;;;;0.60;0.60;;;;;8.50;94490.00;;;;5056696;28;20199;-60
2023/10/28 01:08:15;;;;;;;0.60;0.60;;;;;8.40;94479.00;;;;5058598;28;20199;-67
2023/10/28 01:10:43;;;;;;;0.60;0.60;;;;;8.40;94480.00;;;;5059289;28;20196;-61
2023/10/28 01:13:10;;;;;;;0.70;0.70;;;;;8.30;94482.00;;;;5058257;28;20204;-61
2023/10/28 01:15:38;;;;;;;0.57;0.57;;;;;8.40;94479.00;;;;5058852;28;20219;-61
2023/10/28 01:18:05;;;;;;;0.60;0.60;;;;;8.40;94481.00;;;;5040283;28;20701;-61
2023/10/28 01:20:33;;;;;;;0.60;0.60;;;;;8.40;94485.00;;;;5059487;28;20196;-61
2023/10/28 01:23:03;;;;;;;0.67;0.67;;;;;8.40;94487.00;;;;5060461;28;20521;-61
2023/10/28 01:25:31;;;;;;;0.60;0.60;;;;;8.50;94480.00;;;;5058409;28;20191;-61
2023/10/28 01:28:01;;;;;;;0.80;0.80;;;;;8.40;94483.00;;;;5040843;28;20204;-61
2023/10/28 01:30:37;;;;;;;0.60;0.60;;;;;8.30;94481.00;;;;5059107;28;20240;-60
2023/10/28 01:33:05;;;;;;;0.60;0.60;;;;;8.40;94490.00;;;;5059037;28;20207;-60
2023/10/28 01:35:33;;;;;;;0.60;0.60;;;;;8.30;94492.00;;;;5059453;28;20188;-60
2023/10/28 01:38:03;;;;;;;0.57;0.57;;;;;8.30;94482.00;;;;5061492;28;20309;-60
2023/10/28 01:40:31;;;;;;;0.70;0.70;;;;;8.30;94493.00;;;;5061628;28;20193;-61
2023/10/28 01:42:59;;;;;;;0.60;0.60;;;;;8.40;94478.00;;;;5061574;28;20224;-61
2023/10/28 01:45:27;;;;;;;0.57;0.57;;;;;8.40;94477.00;;;;5060694;28;20685;-61
2023/10/28 01:47:54;;;;;;;0.67;0.67;;;;;8.40;94478.00;;;;5059782;28;20203;-61
2023/10/28 01:50:22;;;;;;;0.60;0.60;;;;;8.40;94484.00;;;;5059817;28;20693;-60
2023/10/28 01:52:49;;;;;;;3.23;1.03;;;;;8.40;94488.00;;;;5060314;28;20211;-60
2023/10/28 01:55:18;;;;;;;0.63;0.63;;;;;8.40;94494.00;;;;5061588;28;20203;-61
2023/10/28 01:57:44;;;;;;;0.60;0.60;;;;;8.40;94494.00;;;;5060842;28;20207;-61
2023/10/28 02:00:16;;;;;;;0.60;0.60;;;;;8.30;94491.00;;;;5061444;28;20198;-61
2023/10/28 02:02:45;;;;;;;0.83;0.83;;;;;8.30;94493.00;;;;5061178;28;20212;-61
2023/10/28 02:05:15;;;;;;;0.70;0.70;;;;;8.30;94480.00;;;;5061225;28;20283;-61
2023/10/28 02:07:42;;;;;;;0.50;0.50;;;;;8.50;94498.00;;;;5043276;28;20204;-61
2023/10/28 02:10:11;;;;;;;0.80;0.80;;;;;8.60;94493.00;;;;5060390;28;20188;-61
2023/10/28 02:12:39;;;;;;;0.60;0.60;;;;;8.60;94492.00;;;;5059799;28;20306;-60
2023/10/28 02:15:09;;;;;;;0.80;0.80;;;;;8.50;94490.00;;;;5059064;28;20202;-60
2023/10/28 02:17:38;;;;;;;0.87;0.87;;;;;8.50;94497.00;;;;5059655;28;20193;-60
2023/10/28 02:20:06;;;;;;;0.50;0.50;;;;;8.50;94493.00;;;;5059198;28;20242;-60
2023/10/28 02:22:34;;;;;;;0.50;0.50;;;;;8.50;94484.00;;;;5058704;28;20215;-60
2023/10/28 02:25:03;;;;;;;0.50;0.50;;;;;8.60;94493.00;;;;5059482;28;20232;-60
2023/10/28 02:27:31;;;;;;;0.60;0.60;;;;;8.60;94486.00;;;;5058830;28;20214;-60
2023/10/28 02:30:00;;;;;;;3.50;0.97;;;;;8.70;94496.00;;;;5058500;28;20196;-60
2023/10/28 02:32:27;;;;;;;0.50;0.50;;;;;8.50;94488.00;;;;5057770;28;20215;-60
2023/10/28 02:34:55;;;;;;;0.60;0.60;;;;;8.50;94491.00;;;;5060540;28;20260;-60
2023/10/28 02:37:23;;;;;;;1.17;1.10;;;;;8.60;94492.00;;;;5061367;28;20203;-60
2023/10/28 02:39:50;;;;;;;0.80;0.80;;;;;8.70;94487.00;;;;5061200;28;20206;-61
2023/10/28 02:42:17;;;;;;;0.53;0.53;;;;;8.50;94492.00;;;;5043173;28;20220;-61
2023/10/28 02:44:45;;;;;;;0.83;0.83;;;;;8.50;94491.00;;;;5061452;28;20212;-61
2023/10/28 02:47:15;;;;;;;0.60;0.60;;;;;8.50;94498.00;;;;5043489;28;20207;-61
2023/10/28 02:49:42;;;;;;;0.60;0.60;;;;;8.50;94486.00;;;;5060469;28;20194;-60
2023/10/28 02:52:10;;;;;;;0.77;0.77;;;;;8.60;94484.00;;;;5057281;28;20216;-60
2023/10/28 02:54:37;;;;;;;0.80;0.80;;;;;8.60;94492.00;;;;5060633;28;20203;-60
2023/10/28 02:57:05;;;;;;;0.90;0.90;;;;;8.60;94493.00;;;;5060395;28;20208;-61
2023/10/28 02:59:32;;;;;;;0.50;0.50;;;;;8.50;94491.00;;;;5058203;28;20195;-60
2023/10/28 03:02:00;;;;;;;0.87;0.87;;;;;8.50;94500.00;;;;5059125;28;20235;-61
2023/10/28 03:04:29;;;;;;;1.00;1.00;;;;;8.50;94501.00;;;;5060555;28;20215;-61
2023/10/28 03:06:56;;;;;;;0.87;0.87;;;;;8.50;94499.00;;;;5060592;28;20196;-61
2023/10/28 03:09:24;;;;;;;0.60;0.60;;;;;8.50;94505.00;;;;5060130;28;20630;-61
2023/10/28 03:11:51;;;;;;;9.23;1.03;;;;;8.50;94503.00;;;;5060695;28;20275;-60
2023/10/28 03:14:19;;;;;;;0.90;0.90;;;;;8.50;94505.00;;;;5060695;28;20192;-61
2023/10/28 03:16:46;;;;;;;0.67;0.67;;;;;8.50;94506.00;;;;5060551;28;20192;-61
2023/10/28 03:19:14;;;;;;;0.60;0.60;;;;;8.60;94514.00;;;;5042345;28;20203;-61
2023/10/28 03:21:43;;;;;;;0.70;0.70;;;;;8.50;94510.00;;;;5060138;28;20215;-60
2023/10/28 03:24:10;;;;;;;0.60;0.60;;;;;8.60;94517.00;;;;5060095;28;20215;-61
2023/10/28 03:26:38;;;;;;;0.60;0.60;;;;;8.60;94513.00;;;;5059925;28;20196;-61
2023/10/28 03:29:05;;;;;;;0.60;0.60;;;;;8.60;94517.00;;;;5059723;28;20192;-60
2023/10/28 03:31:33;;;;;;;0.80;0.80;;;;;8.60;94500.00;;;;5060200;28;20715;-61
2023/10/28 03:34:00;;;;;;;0.60;0.60;;;;;8.50;94495.00;;;;5059474;28;20192;-61
2023/10/28 03:36:28;;;;;;;0.60;0.60;;;;;8.50;94505.00;;;;5057421;28;20640;-61
2023/10/28 03:38:57;;;;;;;1.43;1.33;;;;;8.50;94499.00;;;;5040796;28;20214;-61
2023/10/28 03:41:24;;;;;;;0.70;0.70;;;;;8.60;94515.00;;;;5059025;28;20679;-61
2023/10/28 03:43:52;;;;;;;0.80;0.80;;;;;8.50;94503.00;;;;5058491;28;20219;-61
2023/10/28 03:46:20;;;;;;;0.60;0.60;;;;;8.60;94510.00;;;;5059311;28;20310;-61
2023/10/28 03:48:48;;;;;;;0.60;0.60;;;;;8.70;94512.00;;;;5058878;28;20275;-61
2023/10/28 03:51:15;;;;;;;0.60;0.60;;;;;8.70;94512.00;;;;5059776;28;20652;-60
2023/10/28 03:53:42;;;;;;;1.90;1.03;;;;;8.90;94519.00;;;;5059107;28;20188;-60
2023/10/28 03:56:11;;;;;;;0.63;0.63;;;;;8.90;94515.00;;;;5040204;28;20200;-60
2023/10/28 03:58:39;;;;;;;0.97;0.97;;;;;8.80;94514.00;;;;5055269;28;20200;-60
2023/10/28 04:01:06;;;;;;;2.47;0.90;;;;;8.90;94517.00;;;;5038585;28;20199;-60
2023/10/28 04:03:34;;;;;;;1.10;1.10;;;;;8.80;94515.00;;;;5040466;28;20215;-60
2023/10/28 04:06:01;;;;;;;0.63;0.63;;;;;8.90;94513.00;;;;5058220;28;20196;-61
2023/10/28 04:08:29;;;;;;;0.60;0.60;;;;;9.00;94517.00;;;;5058114;28;20196;-61
2023/10/28 04:10:57;;;;;;;2.07;0.87;;;;;8.90;94506.00;;;;5057019;28;20203;-60
2023/10/28 04:13:26;;;;;;;1.23;1.23;;;;;8.90;94516.00;;;;5057315;28;20199;-61
2023/10/28 04:15:53;;;;;;;0.80;0.80;;;;;8.90;94515.00;;;;5056935;28;20196;-60
2023/10/28 04:18:21;;;;;;;0.67;0.67;;;;;8.90;94518.00;;;;5055801;28;20264;-60
2023/10/28 04:20:50;;;;;;;0.60;0.60;;;;;8.90;94518.00;;;;5038379;28;20242;-60
2023/10/28 04:23:18;;;;;;;0.57;0.57;;;;;9.00;94513.00;;;;5056847;28;20282;-60
2023/10/28 04:25:45;;;;;;;0.60;0.60;;;;;8.90;94507.00;;;;5059108;28;20203;-60
2023/10/28 04:28:13;;;;;;;0.70;0.70;;;;;8.90;94511.00;;;;5059009;28;20195;-60
2023/10/28 04:30:42;;;;;;;0.80;0.80;;;;;8.90;94509.00;;;;5040763;28;20204;-60
2023/10/28 04:33:09;;;;;;;0.60;0.60;;;;;8.80;94503.00;;;;5061634;28;20262;-60
2023/10/28 04:35:37;;;;;;;0.50;0.50;;;;;8.70;94516.00;;;;5062058;28;20188;-60
2023/10/28 04:38:04;;;;;;;0.60;0.60;;;;;8.50;94510.00;;;;5062037;28;20204;-61
2023/10/28 04:40:32;;;;;;;1.27;1.17;;;;;8.50;94502.00;;;;5059603;28;20196;-61
2023/10/28 04:43:01;;;;;;;1.20;1.10;;;;;8.50;94517.00;;;;5058395;28;20212;-60
2023/10/28 04:45:28;;;;;;;0.57;0.57;;;;;8.50;94512.00;;;;5040142;28;20223;-60
2023/10/28 04:47:57;;;;;;;0.60;0.60;;;;;8.50;94501.00;;;;5057767;28;20196;-60
2023/10/28 04:50:24;;;;;;;0.70;0.70;;;;;8.60;94510.00;;;;5056597;28;20205;-60
2023/10/28 04:52:52;;;;;;;0.60;0.60;;;;;8.60;94510.00;;;;5056531;28;20208;-60
2023/10/28 04:55:21;;;;;;;0.80;0.80;;;;;8.50;94514.00;;;;5057391;28;20667;-60
2023/10/28 04:57:49;;;;;;;0.50;0.50;;;;;8.60;94513.00;;;;5063445;28;20263;-60
2023/10/28 05:00:19;;;;;;;0.60;0.60;;;;;8.50;94513.00;;;;5063444;28;20191;-60
2023/10/28 05:02:47;;;;;;;0.60;0.60;;;;;8.50;94497.00;;;;5062853;28;20699;-60
2023/10/28 05:05:16;;;;;;;0.50;0.50;;;;;8.50;94485.00;;;;5062817;28;20226;-60
2023/10/28 05:07:44;;;;;;;0.60;0.60;;;;;8.50;94477.00;;;;5062422;28;20192;-61
2023/10/28 05:10:16;;;;;;;0.60;0.60;;;;;8.50;94478.00;;;;5061857;28;20200;-60
2023/10/28 05:12:43;;;;;;;0.70;0.70;;;;;8.40;94483.00;;;;5062719;28;20212;-61
2023/10/28 05:15:11;;;;;;;0.50;0.50;;;;;8.40;94486.00;;;;5062597;28;20188;-60
2023/10/28 05:17:39;;;;;;;0.63;0.63;;;;;8.30;94486.00;;;;5062301;28;20200;-60
2023/10/28 05:20:07;;;;;;;0.50;0.50;;;;;8.20;94488.00;;;;5044587;28;20194;-61
2023/10/28 05:22:37;;;;;;;0.50;0.50;;;;;8.30;94482.00;;;;5062730;28;20215;-61
2023/10/28 05:25:07;;;;;;;0.97;0.97;;;;;8.20;94484.00;;;;5062218;28;20226;-60
2023/10/28 05:27:34;;;;;;;0.60;0.60;;;;;8.10;94492.00;;;;5062771;28;20187;-60
2023/10/28 05:30:02;;;;;;;1.70;1.17;;;;;8.10;94504.00;;;;5061872;28;20196;-60
2023/10/28 05:32:30;;;;;;;0.60;0.60;;;;;8.00;94507.00;;;;5062539;28;20219;-60
2023/10/28 05:34:58;;;;;;;0.70;0.70;;;;;8.10;94501.00;;;;5062397;28;20192;-61
2023/10/28 05:37:26;;;;;;;0.70;0.70;;;;;7.90;94493.00;;;;5062030;28;20207;-61
2023/10/28 05:39:56;;;;;;;0.67;0.67;;;;;7.90;94515.00;;;;5062123;28;20278;-60
2023/10/28 05:42:24;;;;;;;0.50;0.50;;;;;7.90;94521.00;;;;5061712;28;20254;-60
2023/10/28 05:44:52;;;;;;;0.67;0.67;;;;;7.90;94521.00;;;;5061581;28;20225;-60
2023/10/28 05:47:19;;;;;;;1.03;1.03;;;;;7.90;94520.00;;;;5062039;28;20668;-61
2023/10/28 05:49:47;;;;;;;0.60;0.60;;;;;8.00;94529.00;;;;5062848;28;20196;-60
2023/10/28 05:52:18;;;;;;;13.10;1.37;;;;;8.00;94517.00;;;;5061164;28;20222;-60
2023/10/28 05:54:45;;;;;;;0.60;0.60;;;;;8.10;94520.00;;;;5061560;28;20590;-61
2023/10/28 05:57:14;;;;;;;0.60;0.60;;;8.80;87.80;8.10;94520.00;;;;5061131;28;20196;-61
2023/10/28 05:59:41;;;;;;;0.80;0.80;;;8.80;88.60;8.10;94521.00;;;;5043179;28;20266;-60
2023/10/28 06:02:08;;;;;;;0.70;0.70;;;8.90;93.60;8.20;94521.00;;;;5061591;28;20218;-60
2023/10/28 06:04:35;;;;;;;0.50;0.50;;;8.90;92.30;8.30;94519.00;;;;5061488;28;20656;-60
2023/10/28 06:07:02;;;;;;;0.67;0.67;;;8.90;90.40;8.30;94507.00;;;;5059357;28;20569;-60
2023/10/28 06:09:29;;;;;;;0.70;0.70;;;8.90;89.90;8.40;94543.00;;;;5059129;28;20195;-61
2023/10/28 06:11:56;;;;;;;0.80;0.80;;;9.10;90.60;8.30;94550.00;;;;5060851;28;20239;-61
2023/10/28 06:14:24;;;;;;;0.50;0.50;;;9.00;86.80;8.30;94546.00;;;;5061366;28;20589;-61
2023/10/28 06:16:52;;;;;;;0.67;0.67;;;9.10;85.90;8.50;94573.00;;;;5061417;28;20208;-61
2023/10/28 06:19:21;;;;;;;0.60;0.60;;;9.10;92.70;8.60;94568.00;;;;5060834;28;20207;-60
2023/10/28 06:21:49;;;;;;;0.70;0.70;;;;;8.60;94572.00;;;;5061276;28;20214;-60
2023/10/28 06:24:18;;;;;;;0.77;0.77;;;;;8.60;94568.00;;;;5064590;28;20211;-60
2023/10/28 06:26:46;;;;;;;1.03;1.03;;;;;8.70;94574.00;;;;5065072;28;20200;-60
2023/10/28 06:29:13;;;;;;;1.33;1.10;;;;;8.80;94572.00;;;;5063177;28;20215;-60
2023/10/28 06:31:46;;;;;;;0.50;0.50;;;;;8.90;94569.00;;;;5059269;28;20212;-61
2023/10/28 06:34:14;;;;;;;1.13;0.90;;;;;8.90;94570.00;;;;5060990;28;20533;-60
2023/10/28 06:36:41;;;;;;;1.00;1.00;;;;;9.00;94569.00;;;;5060450;28;20295;-60
2023/10/28 06:39:09;;;;;;;0.60;0.60;;;;;9.00;94575.00;;;;5061173;28;20184;-60
2023/10/28 06:41:37;;;;;;;0.60;0.60;;;;;8.90;94571.00;;;;5069100;22;20235;-65
2023/10/28 06:44:08;;;;;;;1.37;1.07;;;;;9.10;94572.00;;;;5054744;28;20275;-65
2023/10/28 06:46:36;;;;;;;0.87;0.87;;;;;9.10;94581.00;;;;5058105;28;20263;-65
2023/10/28 06:49:08;;;;;;;0.60;0.60;;;;;9.00;94587.00;;;;5060102;28;20196;-65
2023/10/28 06:51:35;;;;;;;1.63;1.53;;;;;9.20;94596.00;;;;5060442;28;20250;-65
2023/10/28 06:54:03;;;;;;;0.80;0.80;;;;;9.20;94584.00;;;;5058743;28;20195;-66
2023/10/28 06:56:31;;;;;;;0.60;0.60;;;;;9.20;94594.00;;;;5055142;28;20541;-66
2023/10/28 06:58:58;;;;;;;1.07;1.07;;;;;9.30;94602.00;;;;5054771;28;20192;-65
2023/10/28 07:01:28;;;;;;;0.70;0.70;;;;;9.30;94589.00;;;;5054534;28;20215;-64
2023/10/28 07:03:57;;;;;;;0.80;0.80;;;;;9.30;94588.00;;;;5054837;28;20227;-66
2023/10/28 07:06:25;;;;;;;0.60;0.60;;;;;9.30;94599.00;;;;5054538;28;20222;-65
2023/10/28 07:09:01;;;;;;;0.50;0.50;;;;;9.30;94593.00;;;;5054466;28;20188;-66
2023/10/28 07:11:27;;;;;;;0.73;0.73;;;;;9.40;94587.00;;;;5054871;28;20290;-65
2023/10/28 07:13:55;;;;;;;0.60;0.60;;;;;9.40;94594.00;;;;5054654;28;20196;-64
2023/10/28 07:16:22;;;;;;;0.53;0.53;;;;;9.40;94606.00;;;;5054352;28;20195;-66
2023/10/28 07:18:49;;;;;;;0.80;0.80;;;;;9.30;94616.00;;;;5036286;28;20636;-64
2023/10/28 07:21:17;;;;;;;0.60;0.60;;;;;9.40;94607.00;;;;5055490;28;20726;-66
2023/10/28 07:23:47;;;;;;;0.97;0.97;;;;;9.50;94612.00;;;;5036924;28;20546;-65
2023/10/28 07:26:14;;;;;;;0.70;0.70;;;;;9.50;94611.00;;;;5053961;28;20690;-64
2023/10/28 07:28:42;;;;;;;0.93;0.93;;;;;9.70;94611.00;;;;5054084;28;20681;-65
2023/10/28 07:31:09;;;;;;;1.00;1.00;;;;;9.70;94628.00;;;;5054142;28;20196;-65
2023/10/28 07:33:37;;;;;;;0.50;0.50;;;;;9.70;94635.00;;;;5053952;28;20199;-65
2023/10/28 07:36:05;;;;;;;0.97;0.97;;;;;9.60;94637.00;;;;5053844;28;20237;-65
2023/10/28 07:38:33;;;;;;;1.70;1.17;;;;;9.70;94639.00;;;;5054253;28;20594;-64
2023/10/28 07:41:02;;;;;;;0.80;0.80;;;;;9.70;94642.00;;;;5053526;28;20664;-64
2023/10/28 07:43:29;;;;;;;0.70;0.70;;;;;9.80;94644.00;;;;5035774;28;20667;-66
2023/10/28 07:45:57;;;;;;;0.83;0.83;;;;;9.90;94650.00;;;;5054070;28;20215;-65
2023/10/28 07:48:26;;;;;;;1.93;1.07;;;;;9.90;94639.00;;;;5054407;28;20532;-65
2023/10/28 07:50:54;;;;;;;1.10;1.10;;;;;10.00;94631.00;;;;5053421;28;20197;-65
2023/10/28 07:53:21;;;;;;;1.13;1.03;;;;;9.90;94647.00;;;;5053842;28;20585;-64
2023/10/28 07:55:49;;;;;;;1.53;1.47;;;;;10.00;94652.00;;;;5053064;28;20211;-64
2023/10/28 07:58:17;;;;;;;0.70;0.70;;;;;10.20;94661.00;;;;5053354;28;20196;-65
2023/10/28 08:00:46;;;;;;;0.60;0.60;;;;;10.40;94647.00;;;;5053251;28;20710;-64
2023/10/28 08:03:13;;;;;;;1.17;1.10;;;;;10.50;94641.00;;;;5052971;28;20218;-64
2023/10/28 08:05:41;;;;;;;0.60;0.60;;;;;10.40;94649.00;;;;5052926;28;20619;-64
2023/10/28 08:08:09;;;;;;;1.03;0.93;;;;;10.50;94654.00;;;;5053062;28;20202;-64
2023/10/28 08:10:39;;;;;;;0.60;0.60;;;;;10.60;94648.00;;;;5053413;28;20188;-64
2023/10/28 08:13:06;;;;;;;0.73;0.73;;;;;10.60;94645.00;;;;5052845;28;20226;-65
2023/10/28 08:15:35;;;;;;;0.60;0.60;;;;;10.70;94648.00;;;;5053489;28;20223;-64
2023/10/28 08:18:03;;;;;;;1.00;1.00;;;;;10.80;94637.00;;;;5053422;28;20196;-65
2023/10/28 08:20:30;;;;;;;0.60;0.60;;;;;11.00;94655.00;;;;5053349;28;20188;-65
2023/10/28 08:22:58;;;;;;;3.97;1.77;;;;;11.00;94659.00;;;;5034976;28;20218;-64
2023/10/28 08:25:25;;;;;;;0.60;0.60;;;;;10.80;94663.00;;;;5053382;28;20231;-64
2023/10/28 08:27:52;;;;;;;0.67;0.67;;;;;10.90;94664.00;;;;5052853;28;20187;-65
2023/10/28 08:30:20;;;;;;;0.60;0.60;;;;;11.00;94666.00;;;;5052429;28;20192;-65
2023/10/28 08:32:49;;;;;;;1.33;1.23;;;;;11.00;94665.00;;;;5052604;28;20286;-65
2023/10/28 08:35:19;;;;;;;1.10;0.97;;;;;10.90;94670.00;;;;5052752;28;20270;-64
2023/10/28 08:37:48;;;;;;;2.97;1.63;;;;;11.00;94668.00;;;;5052595;28;20275;-64
2023/10/28 08:40:16;;;;;;;0.83;0.83;;;;;11.00;94664.00;;;;5052458;28;20204;-64
2023/10/28 08:42:44;;;;;;;0.63;0.63;;;;;11.20;94665.00;;;;5052613;28;20219;-64
2023/10/28 08:45:12;;;;;;;1.43;0.93;;;;;11.50;94662.00;;;;5052815;28;20222;-64
2023/10/28 08:47:41;;;;;;;1.53;1.43;;;;;11.50;94668.00;;;;5034658;28;20202;-64
2023/10/28 08:50:11;;;;;;;0.80;0.80;;;;;11.40;94674.00;;;;5052608;28;20709;-64
2023/10/28 08:52:41;;;;;;;0.70;0.70;;;;;11.40;94668.00;;;;5052791;28;20222;-64
2023/10/28 08:55:10;;;;;;;0.80;0.80;;;;;11.40;94676.00;;;;5052551;28;20581;-64
2023/10/28 08:57:43;;;;;;;0.70;0.70;;;;;11.50;94671.00;;;;5053145;28;20192;-64
2023/10/28 09:00:15;;;;;;;1.40;1.23;;;;;11.60;94673.00;;;;5052665;28;20184;-64
2023/10/28 09:02:45;;;;;;;0.60;0.60;;;;;11.60;94673.00;;;;5052458;28;20776;-64
2023/10/28 09:05:15;;;;;;;0.60;0.60;;;;;11.70;94677.00;;;;5052469;28;20583;-64
2023/10/28 09:07:43;;;;;;;0.70;0.70;;;;;11.60;94672.00;;;;5052980;28;20207;-65
2023/10/28 09:10:11;;;;;;;0.60;0.60;;;;;11.70;94670.00;;;;5052543;28;20192;-65
2023/10/28 09:12:38;;;;;;;0.60;0.60;;;;;11.70;94664.00;;;;5053199;28;20566;-65
2023/10/28 09:15:08;;;;;;;0.77;0.77;;;;;12.00;94679.00;;;;5034545;28;20191;-65
2023/10/28 09:17:36;;;;;;;0.60;0.60;;;;;12.10;94681.00;;;;5052929;28;20192;-65
2023/10/28 09:20:09;;;;;;;0.60;0.60;;;;;11.80;94680.00;;;;5034635;28;20230;-65
2023/10/28 09:22:39;;;;;;;0.70;0.70;;;;;12.00;94680.00;;;;5052723;28;20625;-65
2023/10/28 09:25:09;;;;;;;1.00;0.93;;;;;11.80;94664.00;;;;5052253;28;20196;-65
2023/10/28 09:27:36;;;;;;;1.23;1.13;;;;;11.70;94661.00;;;;5052503;28;20686;-64
2023/10/28 09:30:06;;;;;;;0.70;0.70;;;;;12.20;94675.00;;;;5052938;28;20215;-64
2023/10/28 09:32:34;;;;;;;0.60;0.60;;;;;12.40;94673.00;;;;5052831;28;20219;-65
2023/10/28 09:35:05;;;;;;;0.80;0.80;;;;;11.80;94671.00;;;;5052385;28;20630;-65
2023/10/28 09:37:34;;;;;;;0.70;0.70;;;;;12.10;94678.00;;;;5052787;28;20195;-65
2023/10/28 09:40:04;;;;;;;1.43;1.33;;;;;12.20;94681.00;;;;5052503;28;20614;-65
2023/10/28 09:42:32;;;;;;;0.67;0.67;;;;;12.20;94693.00;;;;5053002;28;20241;-64
2023/10/28 09:45:01;;;;;;;2.93;0.83;;;;;12.10;94688.00;;;;5055944;28;20203;-64
2023/10/28 09:47:38;;;;;;;0.60;0.60;;;;;12.40;94679.00;;;;5056222;28;20188;-65
2023/10/28 09:50:08;;;;;;;0.53;0.53;;;;;12.40;94680.00;;;;5056396;28;20259;-64
2023/10/28 09:52:39;;;;;;;0.90;0.90;;;;;12.40;94680.00;;;;5038116;28;20212;-64
2023/10/28 09:55:13;;;;;;;0.50;0.50;;;;;12.50;94684.00;;;;5055921;28;20636;-64
2023/10/28 09:57:41;;;;;;;4.80;0.80;;;;;12.70;94680.00;;;;5056252;28;20177;-65
2023/10/28 10:00:17;;;;;;;0.60;0.60;;;;;13.10;94684.00;;;;5056276;28;20199;-65
2023/10/28 10:03:03;;;;;;;0.60;0.60;;;;;13.10;94691.00;;;;5055709;28;20230;-65
2023/10/28 10:05:37;;;;;;;4.00;0.80;;;;;13.00;94696.00;;;;5055690;28;20288;-65
2023/10/28 10:08:04;;;;;;;0.60;0.60;;;;;12.60;94694.00;;;;5037802;28;20223;-65
2023/10/28 10:10:44;;;;;;;0.97;0.97;;;;;12.70;94682.00;;;;5055908;28;20192;-64
2023/10/28 10:13:11;;;;;;;0.77;0.77;;;;;13.10;94684.00;;;;5055714;28;20647;-65
2023/10/28 10:15:44;;;;;;;0.60;0.60;;;;;13.20;94698.00;;;;5055421;28;20192;-65
2023/10/28 10:18:21;;;;;;;0.60;0.60;;;;;13.20;94701.00;;;;5055826;28;20263;-64
2023/10/28 10:20:48;;;;;;;0.60;0.60;;;;;13.00;94692.00;;;;5055382;28;20561;-64
2023/10/28 10:23:16;;;;;;;0.67;0.67;;;;;13.00;94689.00;;;;5055214;28;20272;-64
2023/10/28 10:25:46;;;;;;;0.50;0.50;;;;;13.70;94685.00;;;;5055225;28;20679;-64
2023/10/28 10:28:15;;;;;;;0.60;0.60;;;;;13.90;94695.00;;;;5055363;28;20192;-65
2023/10/28 10:30:43;;;;;;;0.87;0.87;;;;;13.70;94695.00;;;;5055299;28;20219;-65
2023/10/28 10:33:12;;;;;;;0.67;0.67;;;;;13.00;94693.00;;;;5055112;28;20224;-66
2023/10/28 10:35:46;;;;;;;1.13;1.00;;;;;12.90;94663.00;;;;5055053;28;20193;-69
2023/10/28 10:38:14;;;;;;;0.60;0.60;;;;;12.90;94692.00;;;;5055200;28;20194;-66
2023/10/28 10:40:52;;;;;;;1.23;1.13;;;;;12.70;94694.00;;;;5054966;28;20200;-65
2023/10/28 10:43:21;;;;;;;0.57;0.57;;;;;12.60;94702.00;;;;5055213;28;20263;-64
2023/10/28 10:45:49;;;;;;;0.67;0.67;;;;;12.50;94705.00;;;;5054877;28;20216;-64
2023/10/28 10:48:18;;;;;;;2.17;1.03;;;;;12.40;94712.00;;;;5055174;28;20188;-65
2023/10/28 10:50:46;;;;;;;0.70;0.70;;;;;12.50;94712.00;;;;5036793;28;20200;-64
2023/10/28 10:53:13;;;;;;;0.70;0.70;;;;;12.60;94708.00;;;;5054293;28;20701;-65
2023/10/28 10:55:41;;;;;;;0.93;0.93;;;;;12.60;94708.00;;;;5054661;28;20199;-65
2023/10/28 10:58:10;;;;;;;0.70;0.70;;;;;12.70;94714.00;;;;5054855;28;20196;-65
2023/10/28 11:00:37;;;;;;;0.60;0.60;;;;;13.00;94706.00;;;;5054743;28;20675;-65
2023/10/28 11:03:07;;;;;;;0.63;0.63;;;;;13.00;94706.00;;;;5054318;28;20687;-65
2023/10/28 11:05:36;;;;;;;0.80;0.80;;;;;12.90;94705.00;;;;5054505;28;20192;-65
2023/10/28 11:08:06;;;;;;;1.73;1.60;;;;;13.20;94698.00;;;;5054571;28;20197;-65
2023/10/28 11:10:33;;;;;;;0.60;0.60;;;;;13.10;94699.00;;;;5054667;28;20273;-66
2023/10/28 11:13:04;;;;;;;0.60;0.60;;;;;12.70;94702.00;;;;5054235;28;20695;-65
2023/10/28 11:15:34;;;;;;;0.90;0.90;;;;;12.90;94700.00;;;;5054884;28;20553;-64
2023/10/28 11:18:01;;;;;;;2.03;0.97;;;;;12.80;94689.00;;;;5054447;28;20203;-64
2023/10/28 11:20:30;;;;;;;1.27;1.17;;;;;12.90;94703.00;;;;5053994;28;20192;-65
2023/10/28 11:22:57;;;;;;;2.00;1.70;;;;;12.80;94694.00;;;;5036089;28;20247;-64
2023/10/28 11:25:32;;;;;;;0.70;0.70;;;;;12.40;94689.00;;;;5054188;28;20199;-64
2023/10/28 11:28:05;;;;;;;0.60;0.60;;;;;12.60;94690.00;;;;5054227;28;20639;-65
2023/10/28 11:30:34;;;;;;;7.73;1.77;;;;;12.40;94691.00;;;;5054763;28;20187;-66
2023/10/28 11:33:07;;;;;;;1.37;1.27;;;;;12.50;94699.00;;;;5054098;28;20579;-65
2023/10/28 11:35:35;;;;;;;0.70;0.70;;;;;12.60;94698.00;;;;5053778;28;20180;-65
2023/10/28 11:38:03;;;;;;;1.27;1.17;;;;;12.70;94703.00;;;;5054037;28;20306;-65
2023/10/28 11:40:30;;;;;;;8.27;0.90;;;;;12.80;94698.00;;;;5053624;28;20200;-65
2023/10/28 11:42:58;;;;;;;0.60;0.60;;;;;12.50;94689.00;;;;5054103;28;20227;-64
2023/10/28 11:45:25;;;;;;;0.53;0.53;;;;;12.40;94698.00;;;;5053988;28;20504;-66
2023/10/28 11:47:54;;;;;;;0.87;0.87;;;;;12.50;94684.00;;;;5054003;28;20228;-65
2023/10/28 11:50:22;;;;;;;0.80;0.80;;;;;12.70;94691.00;;;;5036001;28;20231;-65
2023/10/28 11:52:49;;;;;;;0.83;0.83;;;;;12.40;94685.00;;;;5053825;28;20612;-66
2023/10/28 11:55:17;;;;;;;0.60;0.60;;;;;12.30;94688.00;;;;5053874;28;20620;-66
2023/10/28 11:57:45;;;;;;;0.70;0.70;;;;;12.30;94679.00;;;;5053730;28;20192;-65
2023/10/28 12:00:14;;;;;;;0.90;0.90;;;;;12.40;94688.00;;;;5053531;28;20192;-65
2023/10/28 12:02:43;;;;;;;0.87;0.87;;;;;12.40;94682.00;;;;5053477;28;20683;-65
2023/10/28 12:05:12;;;;;;;0.73;0.73;;;;;12.40;94688.00;;;;5053012;28;20545;-63
2023/10/28 12:07:41;;;;;;;1.23;1.23;;;;;12.40;94682.00;;;;5053682;28;20306;-64
2023/10/28 12:10:10;;;;;;;0.60;0.60;;;;;12.30;94678.00;;;;5053565;28;20207;-65
2023/10/28 12:12:38;;;;;;;0.80;0.80;;;;;12.20;94684.00;;;;5053117;28;20261;-64
2023/10/28 12:15:06;;;;;;;0.70;0.70;;;;;12.20;94678.00;;;;5053501;28;20684;-66
2023/10/28 12:17:33;;;;;;;0.73;0.73;;;;;12.10;94667.00;;;;5053417;28;20192;-64
2023/10/28 12:20:00;;;;;;;6.60;1.37;;;;;12.30;94660.00;;;;5053849;28;20204;-66
2023/10/28 12:22:30;;;;;;;1.23;1.10;;;;;12.60;94662.00;;;;5053889;28;20318;-66
2023/10/28 12:24:58;;;;;;;0.67;0.67;;;;;12.80;94664.00;;;;5035594;28;20207;-66
2023/10/28 12:27:25;;;;;;;0.93;0.93;;;;;12.50;94674.00;;;;5053193;28;20230;-66